sensor_id;sensor_type;location;lat;lon;timestamp;pressure;altitude;pressure_sealevel;temperature;humidity
44825;BME280;30542;47.928;2.138;2023-02-28T00:00:57;101214.97;;;19.10;42.10
44825;BME280;30542;47.928;2.138;2023-02-28T00:05:57;101221.59;;;19.08;42.38
44825;BME280;30542;47.928;2.138;2023-02-28T00:11:05;101211.16;;;18.95;42.34
44825;BME280;30542;47.928;2.138;2023-02-28T00:16:09;101230.78;;;19.00;41.97
44825;BME280;30542;47.928;2.138;2023-02-28T00:21:10;101231.25;;;18.97;42.36
44825;BME280;30542;47.928;2.138;2023-02-28T00:26:11;101232.75;;;18.93;42.31
44825;BME280;30542;47.928;2.138;2023-02-28T00:31:11;101236.69;;;18.91;42.08
44825;BME280;30542;47.928;2.138;2023-02-28T00:36:12;101242.75;;;18.86;41.96
44825;BME280;30542;47.928;2.138;2023-02-28T00:41:12;101244.25;;;18.82;42.22
44825;BME280;30542;47.928;2.138;2023-02-28T00:46:13;101254.38;;;18.80;41.81
44825;BME280;30542;47.928;2.138;2023-02-28T00:51:13;101247.50;;;18.72;42.36
44825;BME280;30542;47.928;2.138;2023-02-28T00:56:13;101255.28;;;18.74;42.19
44825;BME280;30542;47.928;2.138;2023-02-28T01:01:14;101259.56;;;18.63;41.96
44825;BME280;30542;47.928;2.138;2023-02-28T01:06:14;101260.94;;;18.66;41.79
44825;BME280;30542;47.928;2.138;2023-02-28T01:11:17;101272.09;;;18.62;41.88
44825;BME280;30542;47.928;2.138;2023-02-28T01:16:17;101266.97;;;18.61;41.93
44825;BME280;30542;47.928;2.138;2023-02-28T01:21:19;101265.59;;;18.58;41.89
44825;BME280;30542;47.928;2.138;2023-02-28T01:26:21;101271.94;;;18.57;41.56
44825;BME280;30542;47.928;2.138;2023-02-28T01:31:22;101271.94;;;18.57;41.52
44825;BME280;30542;47.928;2.138;2023-02-28T01:36:24;101279.50;;;18.60;41.83
44825;BME280;30542;47.928;2.138;2023-02-28T01:41:27;101274.50;;;18.64;41.86
44825;BME280;30542;47.928;2.138;2023-02-28T01:46:29;101269.28;;;18.69;41.17
44825;BME280;30542;47.928;2.138;2023-02-28T01:51:48;101272.34;;;18.73;41.44
44825;BME280;30542;47.928;2.138;2023-02-28T01:56:56;101273.50;;;18.77;41.14
44825;BME280;30542;47.928;2.138;2023-02-28T02:01:59;101272.00;;;18.81;41.36
44825;BME280;30542;47.928;2.138;2023-02-28T02:07:00;101264.09;;;18.86;40.98
44825;BME280;30542;47.928;2.138;2023-02-28T02:12:29;101255.16;;;18.92;41.37
44825;BME280;30542;47.928;2.138;2023-02-28T02:17:38;101262.13;;;19.05;40.66
44825;BME280;30542;47.928;2.138;2023-02-28T02:22:53;101258.63;;;19.16;40.40
44825;BME280;30542;47.928;2.138;2023-02-28T02:28:46;101259.16;;;19.30;40.35
44825;BME280;30542;47.928;2.138;2023-02-28T02:39:17;101264.94;;;19.50;39.70
44825;BME280;30542;47.928;2.138;2023-02-28T02:44:33;101266.41;;;19.58;39.80
44825;BME280;30542;47.928;2.138;2023-02-28T02:49:42;101259.06;;;19.65;39.69
44825;BME280;30542;47.928;2.138;2023-02-28T02:59:47;101247.78;;;19.75;39.45
44825;BME280;30542;47.928;2.138;2023-02-28T03:04:53;101244.72;;;19.83;39.16
44825;BME280;30542;47.928;2.138;2023-02-28T03:10:00;101252.84;;;19.88;39.15
44825;BME280;30542;47.928;2.138;2023-02-28T03:15:27;101246.22;;;19.91;38.82
44825;BME280;30542;47.928;2.138;2023-02-28T03:20:41;101251.84;;;19.94;38.78
44825;BME280;30542;47.928;2.138;2023-02-28T03:25:55;101244.97;;;19.98;38.84
44825;BME280;30542;47.928;2.138;2023-02-28T03:31:06;101254.16;;;20.02;38.68
44825;BME280;30542;47.928;2.138;2023-02-28T03:36:16;101252.88;;;20.05;38.49
44825;BME280;30542;47.928;2.138;2023-02-28T03:41:30;101255.88;;;20.08;38.56
44825;BME280;30542;47.928;2.138;2023-02-28T03:46:35;101253.53;;;20.12;38.58
44825;BME280;30542;47.928;2.138;2023-02-28T03:51:37;101257.81;;;20.13;38.39
44825;BME280;30542;47.928;2.138;2023-02-28T03:56:54;101242.03;;;20.11;38.38
44825;BME280;30542;47.928;2.138;2023-02-28T04:01:57;101243.16;;;20.16;38.40
44825;BME280;30542;47.928;2.138;2023-02-28T04:07:06;101237.47;;;20.12;38.12
44825;BME280;30542;47.928;2.138;2023-02-28T04:12:08;101244.78;;;20.17;38.26
44825;BME280;30542;47.928;2.138;2023-02-28T04:17:09;101251.75;;;20.18;38.01
44825;BME280;30542;47.928;2.138;2023-02-28T04:22:09;101256.63;;;20.21;37.92
44825;BME280;30542;47.928;2.138;2023-02-28T04:27:10;101264.97;;;20.24;37.96
44825;BME280;30542;47.928;2.138;2023-02-28T04:32:10;101258.56;;;20.25;38.12
44825;BME280;30542;47.928;2.138;2023-02-28T04:37:11;101260.97;;;20.27;37.93
44825;BME280;30542;47.928;2.138;2023-02-28T04:42:12;101264.25;;;20.29;37.95
44825;BME280;30542;47.928;2.138;2023-02-28T04:47:12;101265.59;;;20.31;37.86
44825;BME280;30542;47.928;2.138;2023-02-28T04:52:13;101268.06;;;20.33;37.72
44825;BME280;30542;47.928;2.138;2023-02-28T04:57:13;101258.09;;;20.28;37.60
44825;BME280;30542;47.928;2.138;2023-02-28T05:02:14;101275.34;;;20.38;37.56
44825;BME280;30542;47.928;2.138;2023-02-28T05:07:14;101267.25;;;20.32;37.60
44825;BME280;30542;47.928;2.138;2023-02-28T05:12:15;101292.75;;;20.40;37.58
44825;BME280;30542;47.928;2.138;2023-02-28T05:17:16;101283.69;;;20.41;37.68
44825;BME280;30542;47.928;2.138;2023-02-28T05:22:16;101282.91;;;20.41;37.67
44825;BME280;30542;47.928;2.138;2023-02-28T05:27:17;101286.13;;;20.43;38.14
44825;BME280;30542;47.928;2.138;2023-02-28T05:32:17;101288.00;;;20.42;38.65
44825;BME280;30542;47.928;2.138;2023-02-28T05:37:18;101294.47;;;20.46;39.01
44825;BME280;30542;47.928;2.138;2023-02-28T05:42:18;101307.28;;;20.44;38.87
44825;BME280;30542;47.928;2.138;2023-02-28T05:47:18;101299.84;;;20.46;38.85
44825;BME280;30542;47.928;2.138;2023-02-28T05:52:19;101293.44;;;20.47;38.57
44825;BME280;30542;47.928;2.138;2023-02-28T05:57:19;101300.91;;;20.45;38.50
44825;BME280;30542;47.928;2.138;2023-02-28T06:02:19;101295.53;;;20.45;38.65
44825;BME280;30542;47.928;2.138;2023-02-28T06:07:20;101299.25;;;20.44;38.50
44825;BME280;30542;47.928;2.138;2023-02-28T06:12:22;101310.78;;;20.45;38.51
44825;BME280;30542;47.928;2.138;2023-02-28T06:17:22;101316.16;;;20.45;38.74
44825;BME280;30542;47.928;2.138;2023-02-28T06:22:23;101310.78;;;20.45;38.86
44825;BME280;30542;47.928;2.138;2023-02-28T06:27:23;101313.47;;;20.45;38.86
44825;BME280;30542;47.928;2.138;2023-02-28T06:32:24;101324.97;;;20.45;39.00
44825;BME280;30542;47.928;2.138;2023-02-28T06:37:24;101332.19;;;20.45;38.93
44825;BME280;30542;47.928;2.138;2023-02-28T06:42:28;101339.16;;;20.46;38.81
44825;BME280;30542;47.928;2.138;2023-02-28T06:47:31;101338.38;;;20.45;38.78
44825;BME280;30542;47.928;2.138;2023-02-28T06:52:31;101344.53;;;20.46;38.77
44825;BME280;30542;47.928;2.138;2023-02-28T06:57:34;101336.16;;;20.42;38.74
44825;BME280;30542;47.928;2.138;2023-02-28T07:02:37;101351.84;;;20.50;38.85
44825;BME280;30542;47.928;2.138;2023-02-28T07:07:37;101355.94;;;20.53;38.72
44825;BME280;30542;47.928;2.138;2023-02-28T07:12:40;101353.53;;;20.56;38.82
44825;BME280;30542;47.928;2.138;2023-02-28T07:17:42;101359.00;;;20.62;38.61
44825;BME280;30542;47.928;2.138;2023-02-28T07:22:42;101363.63;;;20.66;38.46
44825;BME280;30542;47.928;2.138;2023-02-28T07:27:43;101349.09;;;20.62;38.48
44825;BME280;30542;47.928;2.138;2023-02-28T07:32:43;101363.13;;;20.69;38.61
44825;BME280;30542;47.928;2.138;2023-02-28T07:37:44;101360.44;;;20.69;38.55
44825;BME280;30542;47.928;2.138;2023-02-28T07:42:44;101358.03;;;20.68;38.88
44825;BME280;30542;47.928;2.138;2023-02-28T07:47:45;101353.97;;;20.65;39.12
44825;BME280;30542;47.928;2.138;2023-02-28T07:52:45;101360.38;;;20.64;39.38
44825;BME280;30542;47.928;2.138;2023-02-28T07:57:46;101364.50;;;20.72;39.53
44825;BME280;30542;47.928;2.138;2023-02-28T08:02:46;101367.28;;;20.77;39.53
44825;BME280;30542;47.928;2.138;2023-02-28T08:07:48;101363.16;;;20.86;39.45
44825;BME280;30542;47.928;2.138;2023-02-28T08:12:49;101374.28;;;20.95;39.21
44825;BME280;30542;47.928;2.138;2023-02-28T08:17:49;101364.75;;;21.04;39.02
44825;BME280;30542;47.928;2.138;2023-02-28T08:22:50;101373.19;;;21.13;38.60
44825;BME280;30542;47.928;2.138;2023-02-28T08:27:51;101378.94;;;21.21;38.54
44825;BME280;30542;47.928;2.138;2023-02-28T08:32:52;101381.69;;;21.26;38.65
44825;BME280;30542;47.928;2.138;2023-02-28T08:37:52;101382.63;;;21.32;38.36
44825;BME280;30542;47.928;2.138;2023-02-28T08:42:53;101382.69;;;21.37;38.30
44825;BME280;30542;47.928;2.138;2023-02-28T08:47:56;101379.50;;;21.40;38.22
44825;BME280;30542;47.928;2.138;2023-02-28T08:52:56;101375.19;;;21.39;38.14
44825;BME280;30542;47.928;2.138;2023-02-28T08:57:57;101390.03;;;21.47;38.04
44825;BME280;30542;47.928;2.138;2023-02-28T09:02:58;101383.13;;;21.51;37.96
44825;BME280;30542;47.928;2.138;2023-02-28T09:07:58;101378.34;;;21.53;37.88
44825;BME280;30542;47.928;2.138;2023-02-28T09:12:59;101367.84;;;21.51;37.74
44825;BME280;30542;47.928;2.138;2023-02-28T09:17:59;101381.63;;;21.60;37.58
44825;BME280;30542;47.928;2.138;2023-02-28T09:22:59;101379.25;;;21.64;37.56
44825;BME280;30542;47.928;2.138;2023-02-28T09:28:00;101385.22;;;21.66;37.36
44825;BME280;30542;47.928;2.138;2023-02-28T09:33:00;101379.31;;;21.69;37.32
44825;BME280;30542;47.928;2.138;2023-02-28T09:38:01;101373.47;;;21.72;37.24
44825;BME280;30542;47.928;2.138;2023-02-28T09:43:03;101370.28;;;21.75;37.17
44825;BME280;30542;47.928;2.138;2023-02-28T09:48:12;101373.28;;;21.78;37.02
44825;BME280;30542;47.928;2.138;2023-02-28T09:58:48;101365.63;;;21.87;37.02
44825;BME280;30542;47.928;2.138;2023-02-28T10:03:56;101369.66;;;21.90;36.97
44825;BME280;30542;47.928;2.138;2023-02-28T10:09:40;101379.06;;;21.92;37.34
44825;BME280;30542;47.928;2.138;2023-02-28T10:14:25;101374.53;;;21.93;36.89
44825;BME280;30542;47.928;2.138;2023-02-28T10:19:44;101326.81;;;21.73;36.99
44825;BME280;30542;47.928;2.138;2023-02-28T10:24:49;101341.53;;;21.92;36.73
44825;BME280;30542;47.928;2.138;2023-02-28T10:29:55;101339.41;;;21.94;36.70
44825;BME280;30542;47.928;2.138;2023-02-28T10:39:59;101354.38;;;21.90;36.66
44825;BME280;30542;47.928;2.138;2023-02-28T10:45:14;101340.97;;;21.90;37.29
44825;BME280;30542;47.928;2.138;2023-02-28T10:55:30;101327.50;;;21.85;38.95
44825;BME280;30542;47.928;2.138;2023-02-28T11:00:34;101324.53;;;21.81;39.41
44825;BME280;30542;47.928;2.138;2023-02-28T11:05:36;101335.97;;;21.77;39.58
44825;BME280;30542;47.928;2.138;2023-02-28T11:10:36;101338.66;;;21.77;39.83
44825;BME280;30542;47.928;2.138;2023-02-28T11:15:37;101337.63;;;21.78;39.74
44825;BME280;30542;47.928;2.138;2023-02-28T11:20:38;101326.31;;;21.76;39.76
44825;BME280;30542;47.928;2.138;2023-02-28T11:25:39;101318.84;;;21.78;39.71
44825;BME280;30542;47.928;2.138;2023-02-28T11:30:41;101318.03;;;21.77;39.75
44825;BME280;30542;47.928;2.138;2023-02-28T11:35:42;101301.13;;;21.77;39.51
44825;BME280;30542;47.928;2.138;2023-02-28T12:01:43;101282.50;;;21.65;38.35
44825;BME280;30542;47.928;2.138;2023-02-28T12:06:59;101283.81;;;21.63;38.50
44825;BME280;30542;47.928;2.138;2023-02-28T12:27:49;101252.00;;;21.44;38.60
44825;BME280;30542;47.928;2.138;2023-02-28T12:32:56;101252.22;;;21.43;38.65
44825;BME280;30542;47.928;2.138;2023-02-28T12:38:03;101246.53;;;21.39;38.46
44825;BME280;30542;47.928;2.138;2023-02-28T12:43:07;101232.59;;;21.37;38.40
44825;BME280;30542;47.928;2.138;2023-02-28T12:48:13;101221.84;;;21.32;38.49
44825;BME280;30542;47.928;2.138;2023-02-28T12:59:01;101221.59;;;21.17;38.76
44825;BME280;30542;47.928;2.138;2023-02-28T13:09:25;101206.66;;;21.21;38.73
44825;BME280;30542;47.928;2.138;2023-02-28T13:14:29;101192.13;;;21.17;38.92
44825;BME280;30542;47.928;2.138;2023-02-28T13:19:35;101201.25;;;21.16;38.82
44825;BME280;30542;47.928;2.138;2023-02-28T13:24:41;101199.06;;;21.13;39.07
44825;BME280;30542;47.928;2.138;2023-02-28T13:29:43;101184.06;;;21.12;38.92
44825;BME280;30542;47.928;2.138;2023-02-28T13:40:00;101188.53;;;21.06;39.24
44825;BME280;30542;47.928;2.138;2023-02-28T13:50:37;101198.91;;;21.02;39.00
44825;BME280;30542;47.928;2.138;2023-02-28T14:01:40;101197.78;;;20.98;38.78
44825;BME280;30542;47.928;2.138;2023-02-28T14:06:37;101205.28;;;20.96;38.68
44825;BME280;30542;47.928;2.138;2023-02-28T14:11:41;101206.34;;;20.95;38.99
44825;BME280;30542;47.928;2.138;2023-02-28T14:16:47;101191.56;;;20.93;38.65
44825;BME280;30542;47.928;2.138;2023-02-28T14:38:46;101200.28;;;20.83;38.81
44825;BME280;30542;47.928;2.138;2023-02-28T14:43:49;101199.50;;;20.82;38.85
44825;BME280;30542;47.928;2.138;2023-02-28T14:48:50;101193.31;;;20.82;38.78
44825;BME280;30542;47.928;2.138;2023-02-28T14:53:56;101195.16;;;20.81;38.76
44825;BME280;30542;47.928;2.138;2023-02-28T14:58:57;101185.78;;;20.79;38.70
44825;BME280;30542;47.928;2.138;2023-02-28T15:04:00;101195.13;;;20.76;38.44
44825;BME280;30542;47.928;2.138;2023-02-28T15:09:15;101184.09;;;20.73;38.67
44825;BME280;30542;47.928;2.138;2023-02-28T15:14:21;101166.03;;;20.63;38.61
44825;BME280;30542;47.928;2.138;2023-02-28T15:19:27;101179.25;;;20.70;38.56
44825;BME280;30542;47.928;2.138;2023-02-28T15:24:39;101189.63;;;20.66;38.42
44825;BME280;30542;47.928;2.138;2023-02-28T15:29:50;101182.34;;;20.62;38.43
44825;BME280;30542;47.928;2.138;2023-02-28T15:34:52;101181.28;;;20.63;38.57
44825;BME280;30542;47.928;2.138;2023-02-28T15:39:54;101174.31;;;20.62;38.43
44825;BME280;30542;47.928;2.138;2023-02-28T15:44:55;101182.56;;;20.60;38.51
44825;BME280;30542;47.928;2.138;2023-02-28T15:50:05;101193.53;;;20.58;38.39
44825;BME280;30542;47.928;2.138;2023-02-28T15:55:16;101192.97;;;20.56;38.58
44825;BME280;30542;47.928;2.138;2023-02-28T16:00:23;101190.53;;;20.55;38.40
44825;BME280;30542;47.928;2.138;2023-02-28T16:05:28;101190.78;;;20.53;38.41
44825;BME280;30542;47.928;2.138;2023-02-28T16:10:30;101178.69;;;20.51;38.54
44825;BME280;30542;47.928;2.138;2023-02-28T16:15:37;101189.16;;;20.52;38.37
44825;BME280;30542;47.928;2.138;2023-02-28T16:20:42;101188.34;;;20.52;38.52
44825;BME280;30542;47.928;2.138;2023-02-28T16:25:45;101190.47;;;20.50;38.46
44825;BME280;30542;47.928;2.138;2023-02-28T16:30:51;101192.22;;;20.44;38.21
44825;BME280;30542;47.928;2.138;2023-02-28T16:35:51;101200.25;;;20.44;38.38
44825;BME280;30542;47.928;2.138;2023-02-28T16:40:56;101208.78;;;20.41;37.97
44825;BME280;30542;47.928;2.138;2023-02-28T16:45:58;101210.66;;;20.41;38.00
44825;BME280;30542;47.928;2.138;2023-02-28T16:50:59;101212.00;;;20.43;38.14
44825;BME280;30542;47.928;2.138;2023-02-28T16:56:00;101210.41;;;20.42;38.02
44825;BME280;30542;47.928;2.138;2023-02-28T17:01:02;101210.66;;;20.41;37.85
44825;BME280;30542;47.928;2.138;2023-02-28T17:06:04;101231.00;;;20.42;37.84
44825;BME280;30542;47.928;2.138;2023-02-28T17:11:04;101231.00;;;20.42;37.92
44825;BME280;30542;47.928;2.138;2023-02-28T17:16:05;101234.72;;;20.41;37.93
44825;BME280;30542;47.928;2.138;2023-02-28T17:21:13;101245.44;;;20.41;37.99
44825;BME280;30542;47.928;2.138;2023-02-28T17:26:16;101242.97;;;20.39;37.93
44825;BME280;30542;47.928;2.138;2023-02-28T17:31:20;101245.91;;;20.38;38.06
44825;BME280;30542;47.928;2.138;2023-02-28T17:36:26;101248.34;;;20.39;37.93
44825;BME280;30542;47.928;2.138;2023-02-28T17:41:26;101253.69;;;20.39;38.33
44825;BME280;30542;47.928;2.138;2023-02-28T17:46:27;101260.34;;;20.36;38.12
44825;BME280;30542;47.928;2.138;2023-02-28T17:51:28;101256.03;;;20.35;38.04
44825;BME280;30542;47.928;2.138;2023-02-28T17:56:28;101275.09;;;20.39;38.09
44825;BME280;30542;47.928;2.138;2023-02-28T18:01:29;101272.41;;;20.39;38.06
44825;BME280;30542;47.928;2.138;2023-02-28T18:06:38;101274.28;;;20.39;38.05
44825;BME280;30542;47.928;2.138;2023-02-28T18:11:51;101269.75;;;20.39;37.50
44825;BME280;30542;47.928;2.138;2023-02-28T18:16:54;101285.25;;;20.37;37.55
44825;BME280;30542;47.928;2.138;2023-02-28T18:21:55;101286.28;;;20.36;37.17
44825;BME280;30542;47.928;2.138;2023-02-28T18:26:55;101286.06;;;20.38;37.42
44825;BME280;30542;47.928;2.138;2023-02-28T18:31:56;101286.84;;;20.38;37.71
44825;BME280;30542;47.928;2.138;2023-02-28T18:36:56;101288.47;;;20.39;37.91
44825;BME280;30542;47.928;2.138;2023-02-28T18:41:57;101279.63;;;20.39;37.67
44825;BME280;30542;47.928;2.138;2023-02-28T18:46:57;101286.59;;;20.40;37.89
44825;BME280;30542;47.928;2.138;2023-02-28T18:51:58;101285.78;;;20.39;37.98
44825;BME280;30542;47.928;2.138;2023-02-28T18:56:58;101295.13;;;20.36;38.21
44825;BME280;30542;47.928;2.138;2023-02-28T19:01:58;101288.94;;;20.36;38.15
44825;BME280;30542;47.928;2.138;2023-02-28T19:06:59;101279.56;;;20.33;38.06
44825;BME280;30542;47.928;2.138;2023-02-28T19:11:59;101281.19;;;20.34;38.22
44825;BME280;30542;47.928;2.138;2023-02-28T19:17:00;101281.09;;;20.29;38.22
44825;BME280;30542;47.928;2.138;2023-02-28T19:22:00;101292.13;;;20.33;38.29
44825;BME280;30542;47.928;2.138;2023-02-28T19:27:00;101287.81;;;20.32;38.28
44825;BME280;30542;47.928;2.138;2023-02-28T19:32:01;101285.13;;;20.32;38.37
44825;BME280;30542;47.928;2.138;2023-02-28T19:37:03;101290.47;;;20.32;38.37
44825;BME280;30542;47.928;2.138;2023-02-28T19:42:03;101290.47;;;20.32;38.37
44825;BME280;30542;47.928;2.138;2023-02-28T19:47:04;101289.47;;;20.33;38.28
44825;BME280;30542;47.928;2.138;2023-02-28T19:52:04;101288.41;;;20.34;38.28
44825;BME280;30542;47.928;2.138;2023-02-28T19:57:05;101288.41;;;20.34;38.30
44825;BME280;30542;47.928;2.138;2023-02-28T20:02:16;101281.19;;;20.34;38.23
44825;BME280;30542;47.928;2.138;2023-02-28T20:07:17;101288.41;;;20.34;38.12
44825;BME280;30542;47.928;2.138;2023-02-28T20:12:21;101284.66;;;20.35;38.09
44825;BME280;30542;47.928;2.138;2023-02-28T20:17:22;101281.97;;;20.35;38.32
44825;BME280;30542;47.928;2.138;2023-02-28T20:22:23;101290.00;;;20.35;38.08
44825;BME280;30542;47.928;2.138;2023-02-28T20:27:23;101281.09;;;20.29;38.31
44825;BME280;30542;47.928;2.138;2023-02-28T20:32:24;101292.47;;;20.36;38.06
44825;BME280;30542;47.928;2.138;2023-02-28T20:37:24;101286.84;;;20.38;38.10
44825;BME280;30542;47.928;2.138;2023-02-28T20:42:25;101282.56;;;20.37;38.49
44825;BME280;30542;47.928;2.138;2023-02-28T20:47:25;101290.59;;;20.37;38.31
44825;BME280;30542;47.928;2.138;2023-02-28T20:52:26;101288.72;;;20.38;38.20
44825;BME280;30542;47.928;2.138;2023-02-28T20:57:29;101295.69;;;20.39;38.03
44825;BME280;30542;47.928;2.138;2023-02-28T21:02:30;101295.69;;;20.39;38.13
44825;BME280;30542;47.928;2.138;2023-02-28T21:07:30;101301.03;;;20.39;38.07
44825;BME280;30542;47.928;2.138;2023-02-28T21:12:30;101301.03;;;20.39;38.19
44825;BME280;30542;47.928;2.138;2023-02-28T21:17:31;101294.06;;;20.38;38.20
44825;BME280;30542;47.928;2.138;2023-02-28T21:22:31;101291.16;;;20.39;38.18
44825;BME280;30542;47.928;2.138;2023-02-28T21:27:31;101299.97;;;20.40;38.21
44825;BME280;30542;47.928;2.138;2023-02-28T21:32:34;101293.28;;;20.37;38.17
44825;BME280;30542;47.928;2.138;2023-02-28T21:37:36;101297.56;;;20.38;38.27
44825;BME280;30542;47.928;2.138;2023-02-28T21:42:37;101296.75;;;20.38;38.03
44825;BME280;30542;47.928;2.138;2023-02-28T21:47:37;101295.34;;;20.35;38.08
44825;BME280;30542;47.928;2.138;2023-02-28T21:52:38;101291.53;;;20.31;38.42
44825;BME280;30542;47.928;2.138;2023-02-28T21:57:38;101287.97;;;20.25;38.63
44825;BME280;30542;47.928;2.138;2023-02-28T22:02:38;101281.50;;;20.21;38.54
44825;BME280;30542;47.928;2.138;2023-02-28T22:07:39;101282.22;;;20.17;38.44
44825;BME280;30542;47.928;2.138;2023-02-28T22:12:41;101281.09;;;20.13;38.49
44825;BME280;30542;47.928;2.138;2023-02-28T22:17:41;101292.25;;;20.09;38.25
44825;BME280;30542;47.928;2.138;2023-02-28T22:22:42;101286.81;;;20.04;38.34
44825;BME280;30542;47.928;2.138;2023-02-28T22:27:42;101292.56;;;19.96;38.48
44825;BME280;30542;47.928;2.138;2023-02-28T22:32:43;101293.63;;;19.95;38.65
44825;BME280;30542;47.928;2.138;2023-02-28T22:37:43;101293.03;;;19.93;38.49
44825;BME280;30542;47.928;2.138;2023-02-28T22:42:43;101292.34;;;19.86;38.53
44825;BME280;30542;47.928;2.138;2023-02-28T22:47:47;101308.66;;;19.84;38.62
44825;BME280;30542;47.928;2.138;2023-02-28T22:52:47;101308.31;;;19.81;38.60
44825;BME280;30542;47.928;2.138;2023-02-28T22:57:48;101304.47;;;19.77;38.36
44825;BME280;30542;47.928;2.138;2023-02-28T23:02:48;101309.28;;;19.75;38.82
44825;BME280;30542;47.928;2.138;2023-02-28T23:07:49;101304.63;;;19.70;38.50
44825;BME280;30542;47.928;2.138;2023-02-28T23:12:49;101308.00;;;19.66;38.87
44825;BME280;30542;47.928;2.138;2023-02-28T23:17:50;101308.50;;;19.63;38.64
44825;BME280;30542;47.928;2.138;2023-02-28T23:22:50;101299.28;;;19.58;38.33
44825;BME280;30542;47.928;2.138;2023-02-28T23:27:51;101306.16;;;19.54;38.69
44825;BME280;30542;47.928;2.138;2023-02-28T23:32:52;101303.16;;;19.51;38.55
44825;BME280;30542;47.928;2.138;2023-02-28T23:37:54;101311.88;;;19.46;38.72
44825;BME280;30542;47.928;2.138;2023-02-28T23:42:55;101302.09;;;19.40;38.52
44825;BME280;30542;47.928;2.138;2023-02-28T23:47:56;101305.28;;;19.37;38.84
44825;BME280;30542;47.928;2.138;2023-02-28T23:52:56;101299.81;;;19.32;38.42
44825;BME280;30542;47.928;2.138;2023-02-28T23:57:57;101305.63;;;19.29;38.34
